sensor_id;sensor_type;location;lat;lon;timestamp;P1;durP1;ratioP1;P2;durP2;ratioP2
47713;SDS011;33475;46.614;13.888;2023-09-19T00:00:45;2.22;;;0.73;;
47713;SDS011;33475;46.614;13.888;2023-09-19T00:03:14;2.65;;;0.80;;
47713;SDS011;33475;46.614;13.888;2023-09-19T00:05:41;3.67;;;1.17;;
47713;SDS011;33475;46.614;13.888;2023-09-19T00:08:10;1.67;;;0.68;;
47713;SDS011;33475;46.614;13.888;2023-09-19T00:10:38;2.50;;;0.80;;
47713;SDS011;33475;46.614;13.888;2023-09-19T00:13:06;2.80;;;0.90;;
47713;SDS011;33475;46.614;13.888;2023-09-19T00:15:40;6.72;;;0.80;;
47713;SDS011;33475;46.614;13.888;2023-09-19T00:18:07;3.40;;;0.70;;
47713;SDS011;33475;46.614;13.888;2023-09-19T00:20:37;1.35;;;0.80;;
47713;SDS011;33475;46.614;13.888;2023-09-19T00:23:04;1.38;;;0.60;;
47713;SDS011;33475;46.614;13.888;2023-09-19T00:25:30;2.88;;;0.93;;
47713;SDS011;33475;46.614;13.888;2023-09-19T00:28:01;2.35;;;0.77;;
47713;SDS011;33475;46.614;13.888;2023-09-19T00:30:27;3.33;;;0.90;;
47713;SDS011;33475;46.614;13.888;2023-09-19T00:32:53;3.03;;;1.00;;
47713;SDS011;33475;46.614;13.888;2023-09-19T00:35:20;2.90;;;1.10;;
47713;SDS011;33475;46.614;13.888;2023-09-19T00:37:49;2.63;;;0.93;;
47713;SDS011;33475;46.614;13.888;2023-09-19T00:40:15;1.92;;;0.80;;
47713;SDS011;33475;46.614;13.888;2023-09-19T00:42:42;4.55;;;0.90;;
47713;SDS011;33475;46.614;13.888;2023-09-19T00:45:09;3.40;;;1.10;;
47713;SDS011;33475;46.614;13.888;2023-09-19T00:47:42;1.17;;;0.75;;
47713;SDS011;33475;46.614;13.888;2023-09-19T00:50:09;3.00;;;1.20;;
47713;SDS011;33475;46.614;13.888;2023-09-19T00:52:36;1.63;;;0.73;;
47713;SDS011;33475;46.614;13.888;2023-09-19T00:55:04;3.03;;;0.80;;
47713;SDS011;33475;46.614;13.888;2023-09-19T00:57:31;4.15;;;0.85;;
47713;SDS011;33475;46.614;13.888;2023-09-19T00:59:58;4.10;;;0.80;;
47713;SDS011;33475;46.614;13.888;2023-09-19T01:02:24;1.48;;;0.90;;
47713;SDS011;33475;46.614;13.888;2023-09-19T01:04:54;1.77;;;0.70;;
47713;SDS011;33475;46.614;13.888;2023-09-19T01:07:20;1.23;;;0.63;;
47713;SDS011;33475;46.614;13.888;2023-09-19T01:09:48;3.03;;;0.52;;
47713;SDS011;33475;46.614;13.888;2023-09-19T01:12:16;2.65;;;0.70;;
47713;SDS011;33475;46.614;13.888;2023-09-19T01:15:06;1.13;;;0.75;;
47713;SDS011;33475;46.614;13.888;2023-09-19T01:17:32;5.97;;;0.60;;
47713;SDS011;33475;46.614;13.888;2023-09-19T01:28:27;3.22;;;1.50;;
47713;SDS011;33475;46.614;13.888;2023-09-19T01:30:56;1.52;;;1.20;;
47713;SDS011;33475;46.614;13.888;2023-09-19T01:33:24;2.40;;;1.23;;
47713;SDS011;33475;46.614;13.888;2023-09-19T01:35:51;2.00;;;1.20;;
47713;SDS011;33475;46.614;13.888;2023-09-19T01:38:18;2.15;;;1.25;;
47713;SDS011;33475;46.614;13.888;2023-09-19T01:40:49;1.55;;;0.80;;
47713;SDS011;33475;46.614;13.888;2023-09-19T01:43:22;1.75;;;0.80;;
47713;SDS011;33475;46.614;13.888;2023-09-19T01:51:07;1.48;;;0.70;;
47713;SDS011;33475;46.614;13.888;2023-09-19T01:56:04;1.77;;;1.10;;
47713;SDS011;33475;46.614;13.888;2023-09-19T01:58:42;2.45;;;1.00;;
47713;SDS011;33475;46.614;13.888;2023-09-19T02:01:11;1.42;;;1.10;;
47713;SDS011;33475;46.614;13.888;2023-09-19T02:03:40;1.27;;;0.95;;
47713;SDS011;33475;46.614;13.888;2023-09-19T02:06:13;1.00;;;0.80;;
47713;SDS011;33475;46.614;13.888;2023-09-19T02:08:41;7.95;;;0.98;;
47713;SDS011;33475;46.614;13.888;2023-09-19T02:11:07;1.45;;;0.68;;
47713;SDS011;33475;46.614;13.888;2023-09-19T02:13:33;1.58;;;0.68;;
47713;SDS011;33475;46.614;13.888;2023-09-19T02:15:59;0.63;;;0.45;;
47713;SDS011;33475;46.614;13.888;2023-09-19T02:18:25;1.13;;;0.90;;
47713;SDS011;33475;46.614;13.888;2023-09-19T02:20:53;0.88;;;0.70;;
47713;SDS011;33475;46.614;13.888;2023-09-19T02:23:21;1.58;;;0.77;;
47713;SDS011;33475;46.614;13.888;2023-09-19T02:25:54;1.13;;;0.82;;
47713;SDS011;33475;46.614;13.888;2023-09-19T02:28:23;1.27;;;0.50;;
47713;SDS011;33475;46.614;13.888;2023-09-19T02:30:49;2.28;;;0.80;;
47713;SDS011;33475;46.614;13.888;2023-09-19T02:33:16;0.98;;;0.80;;
47713;SDS011;33475;46.614;13.888;2023-09-19T02:35:43;0.75;;;0.55;;
47713;SDS011;33475;46.614;13.888;2023-09-19T02:38:09;1.88;;;0.70;;
47713;SDS011;33475;46.614;13.888;2023-09-19T02:40:37;1.23;;;0.80;;
47713;SDS011;33475;46.614;13.888;2023-09-19T02:43:04;2.75;;;0.90;;
47713;SDS011;33475;46.614;13.888;2023-09-19T02:45:30;2.08;;;0.70;;
47713;SDS011;33475;46.614;13.888;2023-09-19T02:47:57;2.28;;;1.00;;
47713;SDS011;33475;46.614;13.888;2023-09-19T02:50:23;1.40;;;0.60;;
47713;SDS011;33475;46.614;13.888;2023-09-19T02:52:49;2.53;;;0.80;;
47713;SDS011;33475;46.614;13.888;2023-09-19T02:55:17;2.40;;;1.20;;
47713;SDS011;33475;46.614;13.888;2023-09-19T02:57:47;1.38;;;1.23;;
47713;SDS011;33475;46.614;13.888;2023-09-19T03:00:14;1.92;;;1.60;;
47713;SDS011;33475;46.614;13.888;2023-09-19T03:02:41;5.13;;;1.08;;
47713;SDS011;33475;46.614;13.888;2023-09-19T03:05:08;1.98;;;1.00;;
47713;SDS011;33475;46.614;13.888;2023-09-19T03:07:36;1.50;;;0.75;;
47713;SDS011;33475;46.614;13.888;2023-09-19T03:10:04;1.20;;;1.05;;
47713;SDS011;33475;46.614;13.888;2023-09-19T03:12:30;1.65;;;0.90;;
47713;SDS011;33475;46.614;13.888;2023-09-19T03:14:57;2.40;;;1.08;;
47713;SDS011;33475;46.614;13.888;2023-09-19T03:17:24;2.47;;;1.50;;
47713;SDS011;33475;46.614;13.888;2023-09-19T03:19:50;2.53;;;0.95;;
47713;SDS011;33475;46.614;13.888;2023-09-19T03:22:16;5.65;;;1.20;;
47713;SDS011;33475;46.614;13.888;2023-09-19T03:24:43;1.45;;;1.13;;
47713;SDS011;33475;46.614;13.888;2023-09-19T03:27:10;2.47;;;1.23;;
47713;SDS011;33475;46.614;13.888;2023-09-19T03:29:37;2.42;;;1.35;;
47713;SDS011;33475;46.614;13.888;2023-09-19T03:32:04;2.38;;;1.65;;
47713;SDS011;33475;46.614;13.888;2023-09-19T03:34:30;4.45;;;1.63;;
47713;SDS011;33475;46.614;13.888;2023-09-19T03:36:56;2.25;;;1.05;;
47713;SDS011;33475;46.614;13.888;2023-09-19T03:39:22;2.83;;;1.38;;
47713;SDS011;33475;46.614;13.888;2023-09-19T03:41:48;8.45;;;1.88;;
47713;SDS011;33475;46.614;13.888;2023-09-19T03:44:15;4.68;;;1.27;;
47713;SDS011;33475;46.614;13.888;2023-09-19T03:46:41;7.38;;;1.30;;
47713;SDS011;33475;46.614;13.888;2023-09-19T03:49:07;6.78;;;1.83;;
47713;SDS011;33475;46.614;13.888;2023-09-19T03:51:34;2.53;;;1.50;;
47713;SDS011;33475;46.614;13.888;2023-09-19T03:54:00;4.93;;;1.55;;
47713;SDS011;33475;46.614;13.888;2023-09-19T03:56:26;2.40;;;1.48;;
47713;SDS011;33475;46.614;13.888;2023-09-19T03:58:53;3.00;;;1.30;;
47713;SDS011;33475;46.614;13.888;2023-09-19T04:01:20;3.08;;;1.20;;
47713;SDS011;33475;46.614;13.888;2023-09-19T04:03:46;3.22;;;1.15;;
47713;SDS011;33475;46.614;13.888;2023-09-19T04:06:16;1.23;;;0.90;;
47713;SDS011;33475;46.614;13.888;2023-09-19T04:08:43;1.20;;;0.88;;
47713;SDS011;33475;46.614;13.888;2023-09-19T04:11:09;2.70;;;1.00;;
47713;SDS011;33475;46.614;13.888;2023-09-19T04:13:36;2.75;;;1.38;;
47713;SDS011;33475;46.614;13.888;2023-09-19T04:16:02;3.50;;;1.00;;
47713;SDS011;33475;46.614;13.888;2023-09-19T04:18:37;2.35;;;1.17;;
47713;SDS011;33475;46.614;13.888;2023-09-19T04:21:05;2.22;;;1.10;;
47713;SDS011;33475;46.614;13.888;2023-09-19T04:23:32;3.88;;;1.05;;
47713;SDS011;33475;46.614;13.888;2023-09-19T04:25:58;3.53;;;1.52;;
47713;SDS011;33475;46.614;13.888;2023-09-19T04:28:25;3.08;;;1.08;;
47713;SDS011;33475;46.614;13.888;2023-09-19T04:30:53;1.17;;;0.98;;
47713;SDS011;33475;46.614;13.888;2023-09-19T04:33:20;1.77;;;1.10;;
47713;SDS011;33475;46.614;13.888;2023-09-19T04:35:48;3.13;;;1.70;;
47713;SDS011;33475;46.614;13.888;2023-09-19T04:38:16;3.42;;;1.17;;
47713;SDS011;33475;46.614;13.888;2023-09-19T04:40:42;3.22;;;1.73;;
47713;SDS011;33475;46.614;13.888;2023-09-19T04:43:08;1.45;;;1.33;;
47713;SDS011;33475;46.614;13.888;2023-09-19T04:45:34;3.88;;;1.30;;
47713;SDS011;33475;46.614;13.888;2023-09-19T04:48:00;1.65;;;1.25;;
47713;SDS011;33475;46.614;13.888;2023-09-19T04:50:27;3.42;;;1.20;;
47713;SDS011;33475;46.614;13.888;2023-09-19T04:52:54;5.07;;;1.17;;
47713;SDS011;33475;46.614;13.888;2023-09-19T04:55:20;1.63;;;1.10;;
47713;SDS011;33475;46.614;13.888;2023-09-19T04:57:47;3.58;;;1.13;;
47713;SDS011;33475;46.614;13.888;2023-09-19T05:00:14;3.38;;;0.90;;
47713;SDS011;33475;46.614;13.888;2023-09-19T05:02:42;2.00;;;1.10;;
47713;SDS011;33475;46.614;13.888;2023-09-19T05:05:08;1.02;;;0.90;;
47713;SDS011;33475;46.614;13.888;2023-09-19T05:07:42;2.78;;;1.48;;
47713;SDS011;33475;46.614;13.888;2023-09-19T05:10:12;1.80;;;1.30;;
47713;SDS011;33475;46.614;13.888;2023-09-19T05:12:38;10.32;;;1.58;;
47713;SDS011;33475;46.614;13.888;2023-09-19T05:15:05;2.63;;;1.40;;
47713;SDS011;33475;46.614;13.888;2023-09-19T05:17:35;1.77;;;1.65;;
47713;SDS011;33475;46.614;13.888;2023-09-19T05:20:02;6.97;;;1.98;;
47713;SDS011;33475;46.614;13.888;2023-09-19T05:22:50;3.47;;;1.67;;
47713;SDS011;33475;46.614;13.888;2023-09-19T05:25:23;3.70;;;1.60;;
47713;SDS011;33475;46.614;13.888;2023-09-19T05:27:52;4.88;;;2.20;;
47713;SDS011;33475;46.614;13.888;2023-09-19T05:30:18;6.03;;;1.83;;
47713;SDS011;33475;46.614;13.888;2023-09-19T05:32:45;7.38;;;1.77;;
47713;SDS011;33475;46.614;13.888;2023-09-19T05:35:11;5.25;;;1.85;;
47713;SDS011;33475;46.614;13.888;2023-09-19T05:37:38;2.33;;;1.98;;
47713;SDS011;33475;46.614;13.888;2023-09-19T05:40:05;5.07;;;1.88;;
47713;SDS011;33475;46.614;13.888;2023-09-19T05:42:37;3.42;;;2.35;;
47713;SDS011;33475;46.614;13.888;2023-09-19T05:45:04;3.35;;;1.80;;
47713;SDS011;33475;46.614;13.888;2023-09-19T05:47:31;3.30;;;1.67;;
47713;SDS011;33475;46.614;13.888;2023-09-19T05:49:58;4.22;;;1.80;;
47713;SDS011;33475;46.614;13.888;2023-09-19T05:52:25;2.30;;;1.92;;
47713;SDS011;33475;46.614;13.888;2023-09-19T05:54:51;2.53;;;1.60;;
47713;SDS011;33475;46.614;13.888;2023-09-19T05:57:17;2.15;;;1.33;;
47713;SDS011;33475;46.614;13.888;2023-09-19T05:59:44;2.28;;;1.65;;
47713;SDS011;33475;46.614;13.888;2023-09-19T06:02:10;4.18;;;1.10;;
47713;SDS011;33475;46.614;13.888;2023-09-19T06:04:37;3.63;;;1.02;;
47713;SDS011;33475;46.614;13.888;2023-09-19T06:07:06;1.83;;;1.00;;
47713;SDS011;33475;46.614;13.888;2023-09-19T06:09:32;2.40;;;1.08;;
47713;SDS011;33475;46.614;13.888;2023-09-19T06:11:58;1.85;;;1.27;;
47713;SDS011;33475;46.614;13.888;2023-09-19T06:14:28;2.78;;;1.30;;
47713;SDS011;33475;46.614;13.888;2023-09-19T06:16:56;8.25;;;1.60;;
47713;SDS011;33475;46.614;13.888;2023-09-19T06:19:22;4.38;;;1.95;;
47713;SDS011;33475;46.614;13.888;2023-09-19T06:21:50;3.38;;;1.73;;
47713;SDS011;33475;46.614;13.888;2023-09-19T06:24:19;2.53;;;1.38;;
47713;SDS011;33475;46.614;13.888;2023-09-19T06:26:46;4.75;;;1.67;;
47713;SDS011;33475;46.614;13.888;2023-09-19T06:29:13;4.72;;;2.13;;
47713;SDS011;33475;46.614;13.888;2023-09-19T06:31:39;4.03;;;3.03;;
47713;SDS011;33475;46.614;13.888;2023-09-19T06:34:05;3.88;;;2.45;;
47713;SDS011;33475;46.614;13.888;2023-09-19T06:36:32;9.07;;;1.77;;
47713;SDS011;33475;46.614;13.888;2023-09-19T06:38:58;3.38;;;2.55;;
47713;SDS011;33475;46.614;13.888;2023-09-19T06:41:24;3.08;;;1.70;;
47713;SDS011;33475;46.614;13.888;2023-09-19T06:43:50;5.10;;;2.50;;
47713;SDS011;33475;46.614;13.888;2023-09-19T06:46:19;6.05;;;2.53;;
47713;SDS011;33475;46.614;13.888;2023-09-19T06:48:45;3.30;;;2.55;;
47713;SDS011;33475;46.614;13.888;2023-09-19T06:51:13;3.63;;;2.75;;
47713;SDS011;33475;46.614;13.888;2023-09-19T06:53:41;4.07;;;1.70;;
47713;SDS011;33475;46.614;13.888;2023-09-19T06:56:08;2.80;;;1.38;;
47713;SDS011;33475;46.614;13.888;2023-09-19T06:58:34;3.30;;;1.25;;
47713;SDS011;33475;46.614;13.888;2023-09-19T07:01:01;3.33;;;1.10;;
47713;SDS011;33475;46.614;13.888;2023-09-19T07:03:28;6.85;;;1.63;;
47713;SDS011;33475;46.614;13.888;2023-09-19T07:05:54;4.95;;;1.58;;
47713;SDS011;33475;46.614;13.888;2023-09-19T07:08:21;2.17;;;1.60;;
47713;SDS011;33475;46.614;13.888;2023-09-19T07:10:47;2.20;;;1.55;;
47713;SDS011;33475;46.614;13.888;2023-09-19T07:13:14;4.15;;;1.73;;
47713;SDS011;33475;46.614;13.888;2023-09-19T07:15:41;2.15;;;1.95;;
47713;SDS011;33475;46.614;13.888;2023-09-19T07:18:15;1.38;;;1.25;;
47713;SDS011;33475;46.614;13.888;2023-09-19T07:20:45;5.82;;;2.42;;
47713;SDS011;33475;46.614;13.888;2023-09-19T07:23:23;4.78;;;1.55;;
47713;SDS011;33475;46.614;13.888;2023-09-19T07:25:51;9.80;;;1.80;;
47713;SDS011;33475;46.614;13.888;2023-09-19T07:28:17;1.85;;;1.70;;
47713;SDS011;33475;46.614;13.888;2023-09-19T07:30:43;3.85;;;1.50;;
47713;SDS011;33475;46.614;13.888;2023-09-19T07:33:09;1.95;;;1.60;;
47713;SDS011;33475;46.614;13.888;2023-09-19T07:35:39;2.08;;;1.52;;
47713;SDS011;33475;46.614;13.888;2023-09-19T07:38:05;1.48;;;1.38;;
47713;SDS011;33475;46.614;13.888;2023-09-19T07:40:31;2.00;;;1.50;;
47713;SDS011;33475;46.614;13.888;2023-09-19T07:42:58;3.33;;;2.20;;
47713;SDS011;33475;46.614;13.888;2023-09-19T07:45:28;1.33;;;1.23;;
47713;SDS011;33475;46.614;13.888;2023-09-19T07:47:58;1.85;;;1.00;;
47713;SDS011;33475;46.614;13.888;2023-09-19T07:50:29;2.03;;;0.98;;
47713;SDS011;33475;46.614;13.888;2023-09-19T07:52:55;2.70;;;0.95;;
47713;SDS011;33475;46.614;13.888;2023-09-19T07:55:21;2.33;;;1.05;;
47713;SDS011;33475;46.614;13.888;2023-09-19T07:57:50;1.45;;;1.08;;
47713;SDS011;33475;46.614;13.888;2023-09-19T08:00:16;4.45;;;1.70;;
47713;SDS011;33475;46.614;13.888;2023-09-19T08:02:42;1.45;;;1.33;;
47713;SDS011;33475;46.614;13.888;2023-09-19T08:05:09;2.03;;;1.35;;
47713;SDS011;33475;46.614;13.888;2023-09-19T08:07:37;1.30;;;1.20;;
47713;SDS011;33475;46.614;13.888;2023-09-19T08:10:03;1.20;;;1.00;;
47713;SDS011;33475;46.614;13.888;2023-09-19T08:12:29;1.95;;;1.30;;
47713;SDS011;33475;46.614;13.888;2023-09-19T08:14:56;3.08;;;1.25;;
47713;SDS011;33475;46.614;13.888;2023-09-19T08:17:22;5.45;;;1.10;;
47713;SDS011;33475;46.614;13.888;2023-09-19T08:19:49;1.42;;;1.20;;
47713;SDS011;33475;46.614;13.888;2023-09-19T08:22:18;4.25;;;1.08;;
47713;SDS011;33475;46.614;13.888;2023-09-19T08:24:44;1.20;;;0.95;;
47713;SDS011;33475;46.614;13.888;2023-09-19T08:27:11;2.70;;;1.42;;
47713;SDS011;33475;46.614;13.888;2023-09-19T08:29:37;3.05;;;1.20;;
47713;SDS011;33475;46.614;13.888;2023-09-19T08:32:04;1.77;;;1.13;;
47713;SDS011;33475;46.614;13.888;2023-09-19T08:34:30;2.67;;;0.95;;
47713;SDS011;33475;46.614;13.888;2023-09-19T08:37:03;1.52;;;1.02;;
47713;SDS011;33475;46.614;13.888;2023-09-19T08:39:29;1.98;;;1.00;;
47713;SDS011;33475;46.614;13.888;2023-09-19T08:41:58;2.03;;;1.00;;
47713;SDS011;33475;46.614;13.888;2023-09-19T08:44:25;2.63;;;1.10;;
47713;SDS011;33475;46.614;13.888;2023-09-19T08:46:56;2.28;;;1.30;;
47713;SDS011;33475;46.614;13.888;2023-09-19T08:49:33;2.80;;;1.13;;
47713;SDS011;33475;46.614;13.888;2023-09-19T08:52:37;3.42;;;1.27;;
47713;SDS011;33475;46.614;13.888;2023-09-19T08:54:56;2.90;;;1.77;;
47713;SDS011;33475;46.614;13.888;2023-09-19T08:57:28;1.63;;;1.08;;
47713;SDS011;33475;46.614;13.888;2023-09-19T08:59:55;3.03;;;1.70;;
47713;SDS011;33475;46.614;13.888;2023-09-19T09:02:22;4.32;;;1.50;;
47713;SDS011;33475;46.614;13.888;2023-09-19T09:04:48;2.53;;;1.55;;
47713;SDS011;33475;46.614;13.888;2023-09-19T09:07:15;4.60;;;1.70;;
47713;SDS011;33475;46.614;13.888;2023-09-19T09:09:44;2.08;;;1.30;;
47713;SDS011;33475;46.614;13.888;2023-09-19T09:12:13;5.63;;;1.60;;
47713;SDS011;33475;46.614;13.888;2023-09-19T09:14:44;1.75;;;1.25;;
47713;SDS011;33475;46.614;13.888;2023-09-19T09:17:11;3.72;;;1.52;;
47713;SDS011;33475;46.614;13.888;2023-09-19T09:19:38;4.80;;;3.13;;
47713;SDS011;33475;46.614;13.888;2023-09-19T09:22:08;2.47;;;1.35;;
47713;SDS011;33475;46.614;13.888;2023-09-19T09:24:34;2.15;;;1.33;;
47713;SDS011;33475;46.614;13.888;2023-09-19T09:27:06;4.32;;;1.42;;
47713;SDS011;33475;46.614;13.888;2023-09-19T09:29:45;4.40;;;1.27;;
47713;SDS011;33475;46.614;13.888;2023-09-19T09:32:27;1.50;;;0.95;;
47713;SDS011;33475;46.614;13.888;2023-09-19T09:35:00;7.72;;;1.30;;
47713;SDS011;33475;46.614;13.888;2023-09-19T09:37:29;3.03;;;1.77;;
47713;SDS011;33475;46.614;13.888;2023-09-19T09:40:00;2.58;;;1.77;;
47713;SDS011;33475;46.614;13.888;2023-09-19T09:42:55;3.75;;;1.20;;
47713;SDS011;33475;46.614;13.888;2023-09-19T09:45:24;3.95;;;1.70;;
47713;SDS011;33475;46.614;13.888;2023-09-19T09:48:00;6.30;;;4.22;;
47713;SDS011;33475;46.614;13.888;2023-09-19T09:50:39;4.03;;;1.40;;
47713;SDS011;33475;46.614;13.888;2023-09-19T09:53:24;2.38;;;1.30;;
47713;SDS011;33475;46.614;13.888;2023-09-19T09:56:02;3.40;;;1.17;;
47713;SDS011;33475;46.614;13.888;2023-09-19T09:58:49;1.15;;;1.00;;
47713;SDS011;33475;46.614;13.888;2023-09-19T10:01:16;2.30;;;0.70;;
47713;SDS011;33475;46.614;13.888;2023-09-19T10:03:43;3.35;;;0.60;;
47713;SDS011;33475;46.614;13.888;2023-09-19T10:06:13;2.67;;;1.30;;
47713;SDS011;33475;46.614;13.888;2023-09-19T10:09:01;1.48;;;0.70;;
47713;SDS011;33475;46.614;13.888;2023-09-19T10:11:31;1.02;;;0.65;;
47713;SDS011;33475;46.614;13.888;2023-09-19T10:13:57;1.52;;;0.93;;
47713;SDS011;33475;46.614;13.888;2023-09-19T10:16:28;1.67;;;1.20;;
47713;SDS011;33475;46.614;13.888;2023-09-19T10:18:57;3.92;;;1.10;;
47713;SDS011;33475;46.614;13.888;2023-09-19T10:21:24;2.97;;;1.00;;
47713;SDS011;33475;46.614;13.888;2023-09-19T10:23:56;2.45;;;1.20;;
47713;SDS011;33475;46.614;13.888;2023-09-19T10:26:27;1.15;;;1.00;;
47713;SDS011;33475;46.614;13.888;2023-09-19T10:28:56;1.90;;;1.77;;
47713;SDS011;33475;46.614;13.888;2023-09-19T10:31:25;1.20;;;0.90;;
47713;SDS011;33475;46.614;13.888;2023-09-19T10:33:53;3.47;;;0.77;;
47713;SDS011;33475;46.614;13.888;2023-09-19T10:36:21;1.15;;;0.95;;
47713;SDS011;33475;46.614;13.888;2023-09-19T10:38:51;1.80;;;0.80;;
47713;SDS011;33475;46.614;13.888;2023-09-19T10:41:20;3.88;;;1.20;;
47713;SDS011;33475;46.614;13.888;2023-09-19T10:43:48;1.50;;;1.00;;
47713;SDS011;33475;46.614;13.888;2023-09-19T10:46:14;1.08;;;0.80;;
47713;SDS011;33475;46.614;13.888;2023-09-19T10:48:40;1.17;;;0.73;;
47713;SDS011;33475;46.614;13.888;2023-09-19T10:53:57;1.05;;;0.85;;
47713;SDS011;33475;46.614;13.888;2023-09-19T10:56:26;2.65;;;1.27;;
47713;SDS011;33475;46.614;13.888;2023-09-19T10:59:09;5.18;;;1.00;;
47713;SDS011;33475;46.614;13.888;2023-09-19T11:01:55;1.15;;;0.60;;
47713;SDS011;33475;46.614;13.888;2023-09-19T11:04:30;1.42;;;0.70;;
47713;SDS011;33475;46.614;13.888;2023-09-19T11:07:07;2.97;;;0.80;;
47713;SDS011;33475;46.614;13.888;2023-09-19T11:12:11;0.93;;;0.50;;
47713;SDS011;33475;46.614;13.888;2023-09-19T11:14:38;1.35;;;0.50;;
47713;SDS011;33475;46.614;13.888;2023-09-19T11:22:23;1.65;;;0.73;;
47713;SDS011;33475;46.614;13.888;2023-09-19T11:24:51;1.77;;;0.75;;
47713;SDS011;33475;46.614;13.888;2023-09-19T11:27:21;1.52;;;0.60;;
47713;SDS011;33475;46.614;13.888;2023-09-19T11:29:47;0.50;;;0.50;;
47713;SDS011;33475;46.614;13.888;2023-09-19T11:32:14;1.55;;;0.55;;
47713;SDS011;33475;46.614;13.888;2023-09-19T11:34:43;1.20;;;0.60;;
47713;SDS011;33475;46.614;13.888;2023-09-19T11:39:37;4.50;;;1.10;;
47713;SDS011;33475;46.614;13.888;2023-09-19T11:44:49;0.85;;;0.50;;
47713;SDS011;33475;46.614;13.888;2023-09-19T11:47:17;1.17;;;0.98;;
47713;SDS011;33475;46.614;13.888;2023-09-19T11:49:44;1.20;;;0.63;;
47713;SDS011;33475;46.614;13.888;2023-09-19T11:52:10;0.77;;;0.50;;
47713;SDS011;33475;46.614;13.888;2023-09-19T11:54:39;0.85;;;0.40;;
47713;SDS011;33475;46.614;13.888;2023-09-19T11:57:06;1.48;;;0.50;;
47713;SDS011;33475;46.614;13.888;2023-09-19T11:59:35;2.08;;;0.57;;
47713;SDS011;33475;46.614;13.888;2023-09-19T12:02:04;1.30;;;0.35;;
47713;SDS011;33475;46.614;13.888;2023-09-19T12:04:35;1.35;;;0.68;;
47713;SDS011;33475;46.614;13.888;2023-09-19T12:07:07;2.72;;;0.65;;
47713;SDS011;33475;46.614;13.888;2023-09-19T12:09:40;0.55;;;0.50;;
47713;SDS011;33475;46.614;13.888;2023-09-19T12:12:09;1.27;;;0.77;;
47713;SDS011;33475;46.614;13.888;2023-09-19T12:14:38;1.55;;;0.73;;
47713;SDS011;33475;46.614;13.888;2023-09-19T12:17:07;5.68;;;2.13;;
47713;SDS011;33475;46.614;13.888;2023-09-19T12:19:34;1.05;;;0.70;;
47713;SDS011;33475;46.614;13.888;2023-09-19T12:22:00;0.80;;;0.75;;
47713;SDS011;33475;46.614;13.888;2023-09-19T12:24:30;0.55;;;0.55;;
47713;SDS011;33475;46.614;13.888;2023-09-19T12:27:04;1.00;;;0.90;;
47713;SDS011;33475;46.614;13.888;2023-09-19T12:29:31;1.52;;;0.70;;
47713;SDS011;33475;46.614;13.888;2023-09-19T12:32:01;1.67;;;0.80;;
47713;SDS011;33475;46.614;13.888;2023-09-19T12:34:30;1.83;;;1.05;;
47713;SDS011;33475;46.614;13.888;2023-09-19T12:37:06;3.45;;;0.75;;
47713;SDS011;33475;46.614;13.888;2023-09-19T12:40:05;1.45;;;0.60;;
47713;SDS011;33475;46.614;13.888;2023-09-19T12:42:43;1.10;;;0.57;;
47713;SDS011;33475;46.614;13.888;2023-09-19T12:45:10;0.88;;;0.73;;
47713;SDS011;33475;46.614;13.888;2023-09-19T12:47:40;1.88;;;0.65;;
47713;SDS011;33475;46.614;13.888;2023-09-19T12:52:45;3.00;;;1.00;;
47713;SDS011;33475;46.614;13.888;2023-09-19T13:03:24;1.95;;;1.05;;
47713;SDS011;33475;46.614;13.888;2023-09-19T13:05:52;1.88;;;1.67;;
47713;SDS011;33475;46.614;13.888;2023-09-19T13:08:25;0.82;;;0.70;;
47713;SDS011;33475;46.614;13.888;2023-09-19T13:11:01;1.30;;;1.20;;
47713;SDS011;33475;46.614;13.888;2023-09-19T13:13:27;0.77;;;0.55;;
47713;SDS011;33475;46.614;13.888;2023-09-19T13:15:54;1.00;;;0.55;;
47713;SDS011;33475;46.614;13.888;2023-09-19T13:18:26;1.02;;;0.50;;
47713;SDS011;33475;46.614;13.888;2023-09-19T13:21:05;0.90;;;0.50;;
47713;SDS011;33475;46.614;13.888;2023-09-19T13:23:49;1.92;;;0.60;;
47713;SDS011;33475;46.614;13.888;2023-09-19T13:26:15;1.00;;;0.57;;
47713;SDS011;33475;46.614;13.888;2023-09-19T13:28:41;5.25;;;0.50;;
47713;SDS011;33475;46.614;13.888;2023-09-19T13:31:09;0.50;;;0.40;;
47713;SDS011;33475;46.614;13.888;2023-09-19T13:33:45;3.13;;;0.60;;
47713;SDS011;33475;46.614;13.888;2023-09-19T13:36:11;1.65;;;0.40;;
47713;SDS011;33475;46.614;13.888;2023-09-19T13:38:39;1.08;;;0.50;;
47713;SDS011;33475;46.614;13.888;2023-09-19T13:41:08;0.80;;;0.50;;
47713;SDS011;33475;46.614;13.888;2023-09-19T13:43:35;2.05;;;0.40;;
47713;SDS011;33475;46.614;13.888;2023-09-19T13:46:02;2.35;;;0.50;;
47713;SDS011;33475;46.614;13.888;2023-09-19T13:48:28;0.35;;;0.35;;
47713;SDS011;33475;46.614;13.888;2023-09-19T13:50:55;0.73;;;0.50;;
47713;SDS011;33475;46.614;13.888;2023-09-19T13:53:22;1.08;;;0.52;;
47713;SDS011;33475;46.614;13.888;2023-09-19T13:55:48;1.30;;;0.50;;
47713;SDS011;33475;46.614;13.888;2023-09-19T13:58:15;1.40;;;0.50;;
47713;SDS011;33475;46.614;13.888;2023-09-19T14:00:41;3.13;;;0.45;;
47713;SDS011;33475;46.614;13.888;2023-09-19T14:03:08;4.38;;;0.70;;
47713;SDS011;33475;46.614;13.888;2023-09-19T14:05:35;0.40;;;0.40;;
47713;SDS011;33475;46.614;13.888;2023-09-19T14:08:02;2.65;;;0.60;;
47713;SDS011;33475;46.614;13.888;2023-09-19T14:10:29;1.45;;;0.60;;
47713;SDS011;33475;46.614;13.888;2023-09-19T14:12:56;1.40;;;0.60;;
47713;SDS011;33475;46.614;13.888;2023-09-19T14:15:24;1.98;;;0.50;;
47713;SDS011;33475;46.614;13.888;2023-09-19T14:17:54;0.52;;;0.52;;
47713;SDS011;33475;46.614;13.888;2023-09-19T14:20:21;1.13;;;0.50;;
47713;SDS011;33475;46.614;13.888;2023-09-19T14:22:48;3.40;;;0.50;;
47713;SDS011;33475;46.614;13.888;2023-09-19T14:25:15;3.80;;;0.50;;
47713;SDS011;33475;46.614;13.888;2023-09-19T14:27:41;1.92;;;0.82;;
47713;SDS011;33475;46.614;13.888;2023-09-19T14:30:07;2.20;;;0.80;;
47713;SDS011;33475;46.614;13.888;2023-09-19T14:32:34;1.73;;;0.70;;
47713;SDS011;33475;46.614;13.888;2023-09-19T14:35:01;1.67;;;0.70;;
47713;SDS011;33475;46.614;13.888;2023-09-19T14:37:27;1.98;;;0.80;;
47713;SDS011;33475;46.614;13.888;2023-09-19T14:39:53;0.60;;;0.50;;
47713;SDS011;33475;46.614;13.888;2023-09-19T14:42:20;1.17;;;0.60;;
47713;SDS011;33475;46.614;13.888;2023-09-19T14:44:46;2.08;;;0.68;;
47713;SDS011;33475;46.614;13.888;2023-09-19T14:47:15;4.45;;;0.70;;
47713;SDS011;33475;46.614;13.888;2023-09-19T14:49:42;5.47;;;0.50;;
47713;SDS011;33475;46.614;13.888;2023-09-19T14:52:08;0.65;;;0.38;;
47713;SDS011;33475;46.614;13.888;2023-09-19T14:54:35;0.88;;;0.47;;
47713;SDS011;33475;46.614;13.888;2023-09-19T14:57:06;1.90;;;0.57;;
47713;SDS011;33475;46.614;13.888;2023-09-19T14:59:36;1.92;;;0.90;;
47713;SDS011;33475;46.614;13.888;2023-09-19T15:02:03;1.25;;;0.65;;
47713;SDS011;33475;46.614;13.888;2023-09-19T15:04:29;1.48;;;0.65;;
47713;SDS011;33475;46.614;13.888;2023-09-19T15:06:56;3.60;;;1.10;;
47713;SDS011;33475;46.614;13.888;2023-09-19T15:09:23;2.58;;;0.80;;
47713;SDS011;33475;46.614;13.888;2023-09-19T15:11:54;2.72;;;0.80;;
47713;SDS011;33475;46.614;13.888;2023-09-19T15:14:23;2.95;;;0.65;;
47713;SDS011;33475;46.614;13.888;2023-09-19T15:16:54;1.60;;;0.65;;
47713;SDS011;33475;46.614;13.888;2023-09-19T15:19:21;3.78;;;1.00;;
47713;SDS011;33475;46.614;13.888;2023-09-19T15:21:47;3.55;;;1.23;;
47713;SDS011;33475;46.614;13.888;2023-09-19T15:24:13;3.63;;;0.93;;